Time;durP1;ratioP1;P1;durP2;ratioP2;P2;SDS_P1;SDS_P2;PMS_P1;PMS_P2;Temp;Humidity;BMP_temperature;BMP_pressure;BME280_temperature;BME280_humidity;BME280_pressure;Samples;Min_cycle;Max_cycle;Signal;HPM_P1;HPM_P2
2023/06/04 00:00:50;;;;;;;36.50;33.28;;;11.00;99.90;;;;;;5049066;28;20410;-61
2023/06/04 00:03:15;;;;;;;37.08;33.90;;;11.00;99.90;;;;;;5048251;28;20041;-61
2023/06/04 00:05:41;;;;;;;37.83;34.58;;;10.90;1.00;;;;;;5048978;28;20064;-61
2023/06/04 00:08:07;;;;;;;38.03;34.63;;;10.80;1.00;;;;;;5048831;28;20108;-61
2023/06/04 00:10:33;;;;;;;37.60;34.53;;;10.70;1.00;;;;;;5048072;28;20747;-61
2023/06/04 00:12:59;;;;;;;39.42;36.08;;;10.80;1.00;;;;;;5048727;28;20076;-61
2023/06/04 00:15:25;;;;;;;39.13;35.42;;;10.60;1.00;;;;;;5049423;28;20072;-61
2023/06/04 00:17:51;;;;;;;37.55;34.28;;;10.60;1.00;;;;;;5048934;28;20041;-61
2023/06/04 00:20:17;;;;;;;36.33;33.40;;;10.60;20.90;;;;;;5049097;28;20041;-61
2023/06/04 00:22:43;;;;;;;36.53;33.30;;;10.50;96.60;;;;;;5048846;28;20060;-61
2023/06/04 00:25:10;;;;;;;38.42;34.78;;;10.60;99.90;;;;;;5040445;28;20044;-61
2023/06/04 00:27:35;;;;;;;36.85;33.42;;;10.60;99.90;;;;;;5049143;28;20401;-61
2023/06/04 00:30:02;;;;;;;37.00;33.58;;;10.70;99.90;;;;;;5049448;28;20040;-61
2023/06/04 00:32:27;;;;;;;35.13;32.15;;;10.70;99.90;;;;;;5048700;28;20068;-61
2023/06/04 00:34:55;;;;;;;34.83;31.73;;;10.70;99.90;;;;;;5048253;28;20049;-61
2023/06/04 00:37:22;;;;;;;35.17;32.08;;;10.80;99.90;;;;;;5049203;28;20118;-61
2023/06/04 00:39:48;;;;;;;34.72;31.83;;;10.70;1.00;;;;;;5048725;28;20507;-61
2023/06/04 00:42:14;;;;;;;34.58;31.58;;;10.80;1.00;;;;;;5048910;28;20088;-61
2023/06/04 00:44:44;;;;;;;35.05;31.83;;;10.70;1.00;;;;;;5048708;28;20132;-61
2023/06/04 00:47:11;;;;;;;35.53;32.13;;;10.50;1.00;;;;;;5047270;28;20045;-61
2023/06/04 00:49:37;;;;;;;36.05;32.72;;;10.60;1.00;;;;;;5048441;28;20264;-61
2023/06/04 00:52:02;;;;;;;37.70;34.03;;;10.50;1.00;;;;;;5048682;28;20041;-61
2023/06/04 00:54:28;;;;;;;34.60;31.33;;;10.50;64.60;;;;;;5048513;28;20441;-61
2023/06/04 00:56:54;;;;;;;34.33;31.30;;;10.70;99.90;;;;;;5047173;28;20116;-62
2023/06/04 00:59:20;;;;;;;33.80;30.67;;;10.70;99.90;;;;;;5048654;28;20032;-61
2023/06/04 01:02:06;;;;;;;34.17;31.08;;;10.60;99.90;;;;;;5048828;28;20044;-61
2023/06/04 01:04:51;;;;;;;34.72;31.70;;;10.60;99.90;;;;;;5048461;28;20526;-61
2023/06/04 01:07:19;;;;;;;34.47;31.38;;;10.60;99.90;;;;;;5048419;28;20041;-61
2023/06/04 01:09:45;;;;;;;36.45;32.85;;;10.60;99.90;;;;;;5054738;28;20756;-61
2023/06/04 01:12:11;;;;;;;34.47;30.75;;;10.40;1.00;;;;;;5048141;28;20123;-61
2023/06/04 01:14:37;;;;;;;35.17;31.83;;;10.60;1.00;;;;;;5047796;28;20037;-61
2023/06/04 01:17:15;;;;;;;36.13;32.30;;;10.60;1.00;;;;;;5044987;28;20114;-61
2023/06/04 01:20:08;;;;;;;33.28;30.05;;;10.50;51.00;;;;;;5047347;28;20045;-61
2023/06/04 01:23:03;;;;;;;33.15;29.65;;;10.60;99.90;;;;;;5050779;28;20060;-61
2023/06/04 01:25:41;;;;;;;34.03;30.40;;;10.60;99.90;;;;;;5032018;28;20136;-61
2023/06/04 01:28:10;;;;;;;34.53;31.02;;;10.40;99.90;;;;;;5043749;28;20450;-61
2023/06/04 01:30:42;;;;;;;35.20;31.70;;;10.50;1.00;;;;;;5066360;28;20037;-61
2023/06/04 01:33:10;;;;;;;33.58;30.35;;;10.50;1.00;;;;;;5051491;28;20530;-61
2023/06/04 01:35:36;;;;;;;33.03;30.02;;;10.30;3.60;;;;;;5051832;28;20052;-61
2023/06/04 01:38:01;;;;;;;32.53;29.35;;;10.30;90.60;;;;;;5052094;28;20044;-61
2023/06/04 01:40:27;;;;;;;32.25;28.95;;;10.40;99.90;;;;;;5040569;28;20183;-61
2023/06/04 01:42:53;;;;;;;31.65;28.90;;;10.40;99.90;;;;;;5031795;28;20157;-61
2023/06/04 01:45:22;;;;;;;34.20;30.70;;;10.40;99.90;;;;;;5031552;28;20099;-62
2023/06/04 01:47:47;;;;;;;33.63;30.08;;;10.30;1.00;;;;;;5042924;28;20178;-62
2023/06/04 01:50:13;;;;;;;31.35;28.58;;;10.30;1.00;;;;;;5051335;28;20128;-62
2023/06/04 01:52:39;;;;;;;34.15;30.33;;;10.30;62.40;;;;;;5051664;28;20052;-62
2023/06/04 01:55:07;;;;;;;33.15;29.98;;;10.40;99.90;;;;;;5051741;28;20170;-62
2023/06/04 01:57:34;;;;;;;32.33;29.50;;;10.30;99.90;;;;;;5050209;28;20279;-61
2023/06/04 02:00:00;;;;;;;32.17;29.10;;;10.50;99.90;;;;;;5050712;28;20048;-61
2023/06/04 02:02:26;;;;;;;33.47;30.38;;;10.30;1.00;;;;;;5051050;28;20617;-61
2023/06/04 02:04:52;;;;;;;32.72;29.65;;;10.30;1.00;;;;;;5050793;28;20136;-61
2023/06/04 02:07:22;;;;;;;32.55;29.38;;;10.40;27.70;;;;;;5051301;28;20029;-61
2023/06/04 02:09:48;;;;;;;31.17;28.27;;;10.20;99.90;;;;;;5051088;28;20044;-61
2023/06/04 02:12:14;;;;;;;29.92;27.27;;;10.20;99.90;;;;;;5051105;28;20033;-61
2023/06/04 02:14:41;;;;;;;31.42;28.17;;;10.20;99.90;;;;;;5050680;28;20087;-61
2023/06/04 02:17:12;;;;;;;30.63;27.65;;;10.10;1.00;;;;;;5050797;28;20037;-61
2023/06/04 02:19:45;;;;;;;31.42;28.05;;;10.30;1.00;;;;;;5050687;28;20048;-61
2023/06/04 02:22:14;;;;;;;30.83;27.83;;;10.30;52.00;;;;;;5051371;28;20438;-61
2023/06/04 02:24:42;;;;;;;32.60;29.20;;;10.20;99.90;;;;;;5051000;28;20131;-61
2023/06/04 02:27:08;;;;;;;30.17;27.23;;;10.00;99.90;;;;;;5050796;28;20079;-61
2023/06/04 02:29:34;;;;;;;30.35;27.48;;;10.10;99.90;;;;;;5050478;28;20041;-61
2023/06/04 02:31:59;;;;;;;31.30;28.35;;;10.10;99.90;;;;;;5067298;28;20040;-61
2023/06/04 02:34:25;;;;;;;31.35;28.50;;;10.00;99.90;;;;;;5050761;28;20094;-60
2023/06/04 02:36:50;;;;;;;31.85;29.08;;;9.90;1.00;;;;;;5050707;28;20118;-60
2023/06/04 02:39:18;;;;;;;33.38;29.05;;;9.80;1.00;;;;;;5050322;28;20040;-60
2023/06/04 02:41:43;;;;;;;31.52;28.27;;;9.80;1.00;;;;;;5050022;28;20099;-60
2023/06/04 02:44:09;;;;;;;30.25;27.40;;;9.80;95.90;;;;;;5050495;28;20049;-60
2023/06/04 02:46:34;;;;;;;31.35;28.25;;;9.70;99.90;;;;;;5050566;28;20053;-60
2023/06/04 02:49:00;;;;;;;28.83;25.88;;;9.60;99.90;;;;;;5050242;28;20041;-60
2023/06/04 02:51:25;;;;;;;29.20;26.50;;;9.80;99.90;;;;;;5050578;28;20033;-61
2023/06/04 02:53:52;;;;;;;30.55;27.58;;;9.90;1.00;;;;;;5050658;28;20037;-60
2023/06/04 02:56:17;;;;;;;29.02;26.17;;;9.60;1.00;;;;;;5050353;28;20124;-60
2023/06/04 02:58:55;;;;;;;30.88;27.63;;;9.70;1.00;;;;;;5049605;28;20183;-60
2023/06/04 03:01:24;;;;;;;29.65;27.00;;;9.60;49.00;;;;;;5049690;28;20429;-61
2023/06/04 03:03:50;;;;;;;28.17;25.55;;;9.70;99.90;;;;;;5050443;28;20041;-60
2023/06/04 03:06:20;;;;;;;29.45;26.38;;;9.70;99.90;;;;;;5049882;28;20466;-60
2023/06/04 03:08:46;;;;;;;29.83;26.92;;;9.60;99.90;;;;;;5047451;28;20037;-61
2023/06/04 03:11:12;;;;;;;31.60;26.75;;;9.90;99.90;;;;;;5050058;28;20051;-61
2023/06/04 03:13:38;;;;;;;30.92;27.77;;;9.90;99.90;;;;;;5050109;28;20037;-61
2023/06/04 03:16:09;;;;;;;29.23;26.13;;;10.00;1.00;;;;;;5050127;28;20517;-61
2023/06/04 03:18:42;;;;;;;29.90;27.00;;;10.00;1.00;;;;;;5049643;28;20099;-60
2023/06/04 03:21:08;;;;;;;30.80;28.10;;;9.70;1.00;;;;;;5049604;28;20045;-61
2023/06/04 03:23:35;;;;;;;29.00;26.52;;;9.80;1.00;;;;;;5048657;28;20112;-60
2023/06/04 03:26:02;;;;;;;29.70;27.00;;;9.70;1.00;;;;;;5049738;28;20167;-60
2023/06/04 03:28:28;;;;;;;33.72;30.55;;;9.90;1.00;;;;;;5049547;28;20462;-61
2023/06/04 03:30:53;;;;;;;32.03;29.08;;;9.60;15.60;;;;;;5049915;28;20072;-61
2023/06/04 03:33:19;;;;;;;35.88;29.45;;;9.80;70.50;;;;;;5050089;28;20471;-61
2023/06/04 03:35:45;;;;;;;30.27;27.40;;;9.70;99.90;;;;;;5049723;28;20558;-61
2023/06/04 03:38:11;;;;;;;32.08;29.02;;;9.80;99.90;;;;;;5049533;28;20048;-61
2023/06/04 03:40:37;;;;;;;32.17;29.38;;;9.80;99.90;;;;;;5049307;28;20518;-61
2023/06/04 03:43:04;;;;;;;32.75;29.45;;;9.80;99.90;;;;;;5048157;28;20594;-61
2023/06/04 03:45:30;;;;;;;31.88;28.83;;;9.80;99.90;;;;;;5049059;28;20132;-60
2023/06/04 03:47:55;;;;;;;31.65;28.45;;;9.70;99.90;;;;;;5049303;28;20507;-60
2023/06/04 03:50:21;;;;;;;32.80;29.50;;;10.00;99.90;;;;;;5049260;28;20045;-61
2023/06/04 03:52:48;;;;;;;32.00;28.77;;;9.70;99.90;;;;;;5047988;28;20044;-60
2023/06/04 03:55:14;;;;;;;33.50;29.95;;;9.80;99.90;;;;;;5049349;28;20037;-60
2023/06/04 03:57:40;;;;;;;31.05;28.25;;;9.70;99.90;;;;;;5049193;28;20047;-61
2023/06/04 04:00:12;;;;;;;31.73;28.52;;;10.00;99.90;;;;;;5048565;28;20060;-60
2023/06/04 04:02:38;;;;;;;32.13;29.15;;;9.80;99.90;;;;;;5048241;28;20048;-60
2023/06/04 04:05:04;;;;;;;35.17;28.98;;;9.80;99.90;;;;;;5049406;28;20090;-60
2023/06/04 04:07:30;;;;;;;32.03;28.92;;;9.90;99.90;;;;;;5048981;28;20037;-61
2023/06/04 04:09:55;;;;;;;34.15;28.88;;;10.20;99.90;;;;;;5047576;28;20068;-61
2023/06/04 04:12:21;;;;;;;31.25;28.50;;;10.20;99.90;;;;;;5049148;28;20044;-60
2023/06/04 04:14:47;;;;;;;30.35;27.35;;;10.20;99.90;;;;;;5049159;28;20045;-60
2023/06/04 04:17:13;;;;;;;31.63;28.63;;;10.00;99.90;;;;;;5049123;28;20866;-60
2023/06/04 04:19:39;;;;;;;30.88;27.98;;;10.10;99.90;;;;;;5048935;28;20049;-60
2023/06/04 04:22:06;;;;;;;31.70;28.75;;;10.20;99.90;;;;;;5049126;28;20398;-60
2023/06/04 04:24:34;;;;;;;30.33;27.40;;;10.30;99.90;;;;;;5041518;28;20476;-61
2023/06/04 04:27:00;;;;;;;30.58;27.58;;;11.80;99.90;;;;;;5036967;28;20487;-60
2023/06/04 04:29:27;;;;;;;31.77;28.30;;;10.50;99.90;;;;;;5048839;28;20037;-60
2023/06/04 04:31:56;;;;;;;32.25;28.92;;;10.20;99.90;;;;;;5048804;28;20047;-60
2023/06/04 04:34:23;;;;;;;31.75;28.30;;;10.50;99.90;;;;;;5049051;28;20033;-61
2023/06/04 04:36:52;;;;;;;30.95;27.10;;;10.20;99.90;;;;;;5048972;28;20049;-60
2023/06/04 04:39:24;;;;;;;29.98;27.02;;;10.40;99.90;;;;;;5049336;28;20122;-60
2023/06/04 04:41:51;;;;;;;29.15;26.05;;;10.70;99.90;;;;;;5056199;28;20045;-60
2023/06/04 04:44:17;;;;;;;30.98;26.65;;;10.70;99.90;;;;;;5048359;28;20510;-60
2023/06/04 04:46:42;;;;;;;29.80;26.77;;;10.60;99.90;;;;;;5048636;28;20052;-60
2023/06/04 04:49:08;;;;;;;28.80;25.90;;;10.20;99.90;;;;;;5048529;28;20134;-60
2023/06/04 04:51:34;;;;;;;29.95;27.08;;;11.10;99.90;;;;;;5048402;28;20056;-60
2023/06/04 04:54:00;;;;;;;28.23;25.52;;;11.30;99.90;;;;;;5048448;28;20073;-60
2023/06/04 04:56:26;;;;;;;30.27;27.20;;;11.20;99.90;;;;;;5052281;28;20099;-60
2023/06/04 04:58:52;;;;;;;29.58;26.65;;;11.60;99.90;;;;;;5053014;28;20518;-61
2023/06/04 05:01:18;;;;;;;31.10;27.85;;;11.60;99.90;;;;;;5052653;28;20040;-60
2023/06/04 05:03:44;;;;;;;31.30;28.50;;;11.80;99.90;;;;;;5052447;28;20449;-60
2023/06/04 05:06:09;;;;;;;31.15;28.02;;;12.20;99.90;;;;;;5050962;28;20094;-61
2023/06/04 05:08:35;;;;;;;30.92;28.05;;;11.90;99.90;;;;;;5052670;28;20072;-61
2023/06/04 05:11:01;;;;;;;31.13;28.10;;;12.40;99.90;;;;;;5052098;28;20449;-60
2023/06/04 05:13:26;;;;;;;31.35;28.25;;;12.30;99.90;;;;;;5052214;28;20098;-60
2023/06/04 05:15:52;;;;;;;32.40;29.23;;;12.20;99.90;;;;;;5052075;28;20407;-61
2023/06/04 05:18:21;;;;;;;32.17;28.85;;;12.40;99.90;;;;;;5052139;28;20040;-61
2023/06/04 05:20:47;;;;;;;33.10;29.30;;;12.90;99.90;;;;;;5051904;28;20068;-60
2023/06/04 05:23:13;;;;;;;33.15;29.55;;;13.00;99.90;;;;;;5052176;28;20083;-61
2023/06/04 05:25:40;;;;;;;33.28;29.60;;;12.60;99.90;;;;;;5052291;28;20037;-60
2023/06/04 05:28:06;;;;;;;32.53;29.08;;;12.70;99.90;;;;;;5052570;28;20041;-61
2023/06/04 05:30:33;;;;;;;31.80;28.83;;;12.80;99.90;;;;;;5051837;28;20380;-61
2023/06/04 05:32:59;;;;;;;32.42;29.23;;;12.90;99.90;;;;;;5052129;28;20051;-61
2023/06/04 05:35:24;;;;;;;31.25;28.15;;;13.40;99.90;;;;;;5051954;28;20112;-60
2023/06/04 05:37:53;;;;;;;30.95;27.83;;;13.40;99.90;;;;;;5052325;28;20091;-60
2023/06/04 05:40:21;;;;;;;31.17;28.02;;;13.40;99.90;;;;;;5051568;28;20055;-61
2023/06/04 05:42:47;;;;;;;31.65;28.52;;;13.60;99.90;;;;;;5051501;28;20129;-60
2023/06/04 05:45:13;;;;;;;30.55;27.25;;;13.50;99.90;;;;;;5051666;28;20128;-60
2023/06/04 05:47:38;;;;;;;30.15;27.10;;;13.60;99.90;;;;;;5048648;28;20120;-60
2023/06/04 05:50:05;;;;;;;31.63;28.52;;;13.70;99.90;;;;;;5050323;28;20372;-60
2023/06/04 05:52:33;;;;;;;32.45;29.17;;;13.50;99.90;;;;;;5050515;28;20033;-60
2023/06/04 05:54:58;;;;;;;31.40;28.30;;;13.50;99.90;;;;;;5048764;28;20485;-61
2023/06/04 05:57:24;;;;;;;32.42;29.02;;;13.80;99.90;;;;;;5048797;28;20052;-61
2023/06/04 05:59:49;;;;;;;32.08;28.85;;;13.80;99.90;;;;;;5048444;28;20043;-60
2023/06/04 06:02:15;;;;;;;33.80;30.30;;;13.70;99.90;;;;;;5047800;28;20037;-61
2023/06/04 06:04:41;;;;;;;33.10;29.90;;;14.10;99.90;;;;;;5049726;28;20029;-60
2023/06/04 06:07:07;;;;;;;32.80;29.33;;;13.90;99.90;;;;;;5042521;28;20033;-60
2023/06/04 06:09:33;;;;;;;30.80;27.88;;;14.00;99.90;;;;;;5049742;28;20045;-60
2023/06/04 06:11:58;;;;;;;30.20;27.33;;;14.60;99.90;;;;;;5047680;28;20072;-60
2023/06/04 06:14:24;;;;;;;31.15;27.92;;;14.20;99.90;;;;;;5039441;28;20505;-60
2023/06/04 06:16:50;;;;;;;33.55;29.98;;;14.10;99.90;;;;;;5041198;28;20033;-61
2023/06/04 06:19:16;;;;;;;32.83;29.60;;;14.10;99.90;;;;;;5049174;28;20119;-60
2023/06/04 06:21:42;;;;;;;32.88;29.55;;;14.10;99.90;;;;;;5049485;28;20136;-61
2023/06/04 06:24:08;;;;;;;32.70;29.30;;;14.30;99.90;;;;;;5048874;28;20120;-61
2023/06/04 06:26:33;;;;;;;33.85;30.60;;;14.50;99.90;;;;;;5050538;28;20072;-61
2023/06/04 06:29:00;;;;;;;33.15;29.83;;;14.40;99.90;;;;;;5045821;28;20041;-61
2023/06/04 06:31:27;;;;;;;32.20;29.20;;;14.30;99.90;;;;;;5047619;28;20124;-61
2023/06/04 06:33:52;;;;;;;30.30;27.08;;;14.50;99.90;;;;;;5049507;28;20165;-61
2023/06/04 06:36:18;;;;;;;31.30;28.33;;;14.50;99.90;;;;;;5044514;28;20087;-61
2023/06/04 06:38:47;;;;;;;31.92;29.02;;;14.70;99.90;;;;;;5045054;28;20514;-61
2023/06/04 06:41:13;;;;;;;32.15;29.15;;;14.70;1.00;;;;;;5050225;28;20041;-61
2023/06/04 06:43:38;;;;;;;31.27;28.33;;;15.10;99.90;;;;;;5050650;28;20067;-61
2023/06/04 06:46:04;;;;;;;32.45;29.52;;;14.90;99.90;;;;;;5038845;28;20049;-61
2023/06/04 06:48:30;;;;;;;32.40;29.00;;;15.00;1.00;;;;;;5049327;28;20517;-61
2023/06/04 06:50:55;;;;;;;31.67;28.45;;;15.00;1.00;;;;;;5043089;28;20079;-61
2023/06/04 06:53:21;;;;;;;29.85;27.00;;;15.10;51.60;;;;;;5036933;28;20058;-61
2023/06/04 06:55:47;;;;;;;29.67;26.85;;;15.30;99.90;;;;;;5039267;28;20045;-61
2023/06/04 06:58:13;;;;;;;29.95;27.00;;;15.30;1.00;;;;;;5047378;28;20045;-61
2023/06/04 07:00:38;;;;;;;31.88;28.60;;;15.50;1.00;;;;;;5049958;28;20128;-61
2023/06/04 07:03:04;;;;;;;29.60;26.70;;;15.60;99.90;;;;;;5047884;28;20462;-61
2023/06/04 07:05:30;;;;;;;29.55;26.98;;;15.80;1.00;;;;;;5046812;28;20067;-61
2023/06/04 07:07:57;;;;;;;30.83;27.95;;;15.70;99.90;;;;;;5044467;28;20120;-61
2023/06/04 07:10:23;;;;;;;30.73;27.67;;;15.60;1.00;;;;;;5044065;28;20045;-61
2023/06/04 07:12:48;;;;;;;28.77;25.98;;;15.60;99.90;;;;;;5050028;28;20467;-61
2023/06/04 07:15:14;;;;;;;29.88;27.08;;;15.60;96.60;;;;;;5049940;28;20076;-61
2023/06/04 07:17:40;;;;;;;31.20;28.00;;;15.60;1.00;;;;;;5049958;28;20033;-61
2023/06/04 07:20:09;;;;;;;29.02;26.27;;;15.70;1.00;;;;;;5047892;28;20047;-61
2023/06/04 07:22:35;;;;;;;31.02;27.98;;;15.90;99.90;;;;;;5043230;28;20041;-61
2023/06/04 07:25:01;;;;;;;31.00;27.95;;;15.80;99.90;;;;;;5034685;28;20033;-61
2023/06/04 07:27:26;;;;;;;29.75;26.88;;;15.90;86.60;;;;;;5048449;28;20044;-61
2023/06/04 07:29:52;;;;;;;28.17;25.65;;;16.00;6.70;;;;;;5042051;28;20033;-61
2023/06/04 07:32:18;;;;;;;28.17;24.58;;;16.20;1.00;;;;;;5044154;28;20040;-61
2023/06/04 07:34:44;;;;;;;27.58;25.02;;;16.40;1.00;;;;;;5043549;28;20483;-61
2023/06/04 07:37:09;;;;;;;23.95;21.67;;;16.60;99.90;;;;;;5048353;28;20143;-61
2023/06/04 07:39:35;;;;;;;25.15;23.08;;;16.80;99.90;;;;;;5046615;28;20041;-61
2023/06/04 07:42:01;;;;;;;24.52;22.33;;;17.00;99.90;;;;;;5045295;28;20095;-61
2023/06/04 07:44:27;;;;;;;24.13;21.92;;;17.10;99.90;;;;;;5047424;28;20072;-61
2023/06/04 07:46:52;;;;;;;27.30;24.48;;;17.30;72.80;;;;;;5041000;28;20040;-61
2023/06/04 07:49:20;;;;;;;25.40;22.90;;;17.30;1.00;;;;;;5044125;28;20044;-61
2023/06/04 07:51:46;;;;;;;25.42;23.02;;;17.30;1.00;;;;;;5048310;28;20499;-61
2023/06/04 07:54:13;;;;;;;26.20;23.65;;;17.30;1.00;;;;;;5046425;28;20119;-61
2023/06/04 07:56:38;;;;;;;26.60;24.02;;;17.30;1.00;;;;;;5044344;28;20040;-61
2023/06/04 07:59:04;;;;;;;25.73;22.98;;;17.40;1.00;;;;;;5044434;28;20399;-61
2023/06/04 08:01:29;;;;;;;25.52;23.08;;;17.40;99.90;;;;;;5046219;28;20048;-61
2023/06/04 08:03:58;;;;;;;25.15;22.85;;;18.70;99.90;;;;;;5047273;28;20128;-61
2023/06/04 08:06:24;;;;;;;25.75;23.35;;;17.40;99.90;;;;;;5045248;28;20068;-60
2023/06/04 08:08:50;;;;;;;24.95;22.35;;;17.40;99.90;;;;;;5047351;28;20094;-61
2023/06/04 08:11:15;;;;;;;25.02;22.23;;;17.60;99.90;;;;;;5047790;28;20056;-61
2023/06/04 08:13:41;;;;;;;21.45;19.45;;;17.80;99.90;;;;;;5034490;28;20033;-61
2023/06/04 08:16:09;;;;;;;25.00;22.58;;;17.90;99.90;;;;;;5041024;28;20601;-61
2023/06/04 08:18:38;;;;;;;29.65;27.15;;;17.80;99.90;;;;;;5036288;28;20088;-61
2023/06/04 08:21:03;;;;;;;30.40;27.60;;;18.50;99.90;;;;;;5041577;28;20037;-57
2023/06/04 08:23:29;;;;;;;31.15;28.60;;;18.20;99.90;;;;;;5040484;28;20052;-58
2023/06/04 08:25:55;;;;;;;29.15;26.45;;;18.00;99.90;;;;;;5039344;28;20056;-58
2023/06/04 08:28:21;;;;;;;29.48;27.10;;;18.10;99.90;;;;;;5044490;28;20041;-58
2023/06/04 08:30:46;;;;;;;30.40;27.73;;;18.00;99.90;;;;;;5045185;28;20076;-58
2023/06/04 08:33:12;;;;;;;30.83;28.20;;;18.10;99.90;;;;;;5039442;28;20632;-57
2023/06/04 08:35:37;;;;;;;31.25;28.35;;;17.90;99.90;;;;;;5050530;28;20080;-58
2023/06/04 08:38:03;;;;;;;29.77;27.25;;;18.80;99.90;;;;;;5047139;28;20087;-58
2023/06/04 08:40:28;;;;;;;30.25;27.63;;;18.00;99.90;;;;;;5047519;28;20048;-58
2023/06/04 08:42:58;;;;;;;29.90;27.40;;;18.10;99.90;;;;;;5039291;28;20124;-58
2023/06/04 08:45:25;;;;;;;29.95;27.30;;;18.00;99.90;;;;;;5046587;28;20041;-58
2023/06/04 08:47:51;;;;;;;25.80;23.77;;;18.20;99.90;;;;;;5045457;28;20091;-57
2023/06/04 08:50:19;;;;;;;33.63;30.58;;;18.40;99.90;;;;;;5042895;28;20033;-57
2023/06/04 08:52:45;;;;;;;36.45;33.35;;;18.50;99.90;;;;;;5042932;28;20064;-57
2023/06/04 08:55:13;;;;;;;39.72;36.40;;;18.40;90.80;;;;;;5052500;28;20048;-57
2023/06/04 08:57:40;;;;;;;43.28;39.70;;;18.40;76.20;;;;;;5047598;28;20036;-57
2023/06/04 09:00:08;;;;;;;43.03;39.67;;;18.30;75.40;;;;;;5052210;28;20048;-57
2023/06/04 09:02:40;;;;;;;48.53;44.63;;;18.40;68.60;;;;;;5051927;28;20037;-57
2023/06/04 09:05:10;;;;;;;56.30;51.78;;;18.40;53.40;;;;;;5049932;28;20673;-57
2023/06/04 09:07:38;;;;;;;56.78;52.50;;;18.40;42.60;;;;;;5033276;28;20056;-57
2023/06/04 09:10:06;;;;;;;51.45;47.78;;;18.90;33.60;;;;;;5051662;28;20045;-57
2023/06/04 09:12:35;;;;;;;22.52;20.52;;;18.50;25.10;;;;;;5045548;28;20113;-57
2023/06/04 09:15:01;;;;;;;9.02;5.18;;;18.50;18.70;;;;;;5049611;28;20037;-57
2023/06/04 09:17:28;;;;;;;10.90;4.55;;;18.60;14.90;;;;;;5043990;28;20072;-60
2023/06/04 09:19:53;;;;;;;4.20;2.67;;;18.70;7.60;;;;;;5050979;28;20072;-59
2023/06/04 09:22:19;;;;;;;7.32;3.30;;;18.80;1.70;;;;;;5048963;28;20068;-58
2023/06/04 09:24:47;;;;;;;6.65;2.70;;;18.60;1.00;;;;;;5048609;28;20037;-58
2023/06/04 09:27:18;;;;;;;7.88;2.95;;;18.60;1.00;;;;;;5039559;28;20414;-61
2023/06/04 09:29:51;;;;;;;6.28;2.97;;;18.70;1.00;;;;;;5035772;28;20347;-60
2023/06/04 09:32:30;;;;;;;8.43;2.80;;;18.80;1.00;;;;;;5051847;28;20114;-60
2023/06/04 09:35:11;;;;;;;9.18;3.03;;;19.00;1.00;;;;;;5040737;28;20529;-61
2023/06/04 09:37:37;;;;;;;5.95;2.70;;;19.00;1.00;;;;;;5045405;28;20029;-60
2023/06/04 09:40:06;;;;;;;7.30;2.85;;;19.10;1.00;;;;;;5042912;28;20045;-63
2023/06/04 09:42:44;;;;;;;6.18;2.88;;;19.00;1.00;;;;;;5041942;28;20099;-57
2023/06/04 09:45:11;;;;;;;4.75;2.63;;;18.90;1.00;;;;;;5047079;28;20516;-57
2023/06/04 09:47:44;;;;;;;6.63;2.70;;;18.90;1.00;;;;;;5047150;28;20116;-58
2023/06/04 09:50:13;;;;;;;6.20;2.65;;;18.90;1.00;;;;;;5047328;28;20048;-57
2023/06/04 09:52:39;;;;;;;6.85;2.80;;;18.80;1.00;;;;;;5034524;28;20033;-57
2023/06/04 09:55:25;;;;;;;7.72;2.80;;;18.80;1.00;;;;;;5039443;28;20120;-57
2023/06/04 09:57:52;;;;;;;4.95;2.60;;;18.70;1.00;;;;;;5041141;28;20041;-58
2023/06/04 10:00:23;;;;;;;7.18;2.67;;;18.70;1.00;;;;;;5043426;28;20080;-58
2023/06/04 10:02:55;;;;;;;6.20;2.60;;;18.80;1.00;;;;;;5047948;28;20049;-57
2023/06/04 10:05:22;;;;;;;6.13;2.40;;;18.70;1.00;;;;;;5045540;28;20043;-58
2023/06/04 10:07:51;;;;;;;6.00;2.70;;;18.80;1.00;;;;;;5052314;28;20048;-57
2023/06/04 10:10:21;;;;;;;6.22;2.65;;;18.80;1.00;;;;;;5047236;28;20037;-57
2023/06/04 10:12:54;;;;;;;5.20;2.70;;;18.70;1.00;;;;;;5048768;28;20029;-58
2023/06/04 10:15:20;;;;;;;6.55;2.63;;;18.80;1.00;;;;;;5041354;28;20059;-57
2023/06/04 10:17:48;;;;;;;4.80;2.63;;;18.90;1.00;;;;;;5045503;28;20045;-58
2023/06/04 10:20:14;;;;;;;3.85;2.20;;;19.00;1.00;;;;;;5045500;28;20047;-57
2023/06/04 10:22:41;;;;;;;6.75;2.53;;;18.90;1.00;;;;;;5044667;28;20025;-58
2023/06/04 10:25:10;;;;;;;5.78;2.33;;;18.90;1.00;;;;;;5046029;28;20120;-58
2023/06/04 10:27:36;;;;;;;7.55;2.92;;;18.90;1.00;;;;;;5045357;28;20060;-57
2023/06/04 10:30:04;;;;;;;6.75;2.40;;;18.90;1.00;;;;;;5049818;28;20503;-57
2023/06/04 10:32:30;;;;;;;7.50;2.85;;;18.70;1.00;;;;;;5042570;28;20457;-57
2023/06/04 10:34:57;;;;;;;6.50;2.90;;;18.70;1.00;;;;;;5049864;28;20560;-57
2023/06/04 10:37:26;;;;;;;5.60;2.30;;;18.80;1.00;;;;;;5049471;28;20068;-57
2023/06/04 10:39:54;;;;;;;7.22;2.67;;;18.80;1.00;;;;;;5036191;28;20152;-57
2023/06/04 10:42:21;;;;;;;3.92;2.33;;;18.60;1.00;;;;;;5043197;28;20839;-57
2023/06/04 10:44:54;;;;;;;4.55;2.42;;;18.50;1.00;;;;;;5048612;28;20071;-57
2023/06/04 10:47:23;;;;;;;4.07;2.40;;;19.00;1.00;;;;;;5050292;28;20120;-57
2023/06/04 10:49:51;;;;;;;7.57;2.40;;;18.60;1.00;;;;;;5047824;28;20033;-57
2023/06/04 10:52:17;;;;;;;5.13;2.47;;;18.50;1.00;;;;;;5038380;28;20095;-57
2023/06/04 10:54:43;;;;;;;4.97;2.25;;;18.70;1.00;;;;;;5039865;28;20419;-57
2023/06/04 10:57:13;;;;;;;5.95;2.60;;;19.10;1.00;;;;;;5050525;28;20033;-57
2023/06/04 10:59:38;;;;;;;6.55;2.60;;;18.60;1.00;;;;;;5048666;28;20123;-57
2023/06/04 11:02:08;;;;;;;4.25;2.30;;;18.50;1.00;;;;;;5046956;28;20116;-57
2023/06/04 11:04:36;;;;;;;4.97;2.35;;;18.50;1.00;;;;;;5048276;28;20037;-58
2023/06/04 11:07:10;;;;;;;4.10;2.08;;;18.60;1.00;;;;;;5048424;28;20049;-57
2023/06/04 11:09:37;;;;;;;7.38;2.40;;;18.50;1.00;;;;;;5042288;28;20043;-57
2023/06/04 11:12:05;;;;;;;8.45;2.75;;;18.40;1.00;;;;;;5041879;28;20052;-57
2023/06/04 11:14:30;;;;;;;5.25;2.72;;;18.50;1.00;;;;;;5045097;28;20033;-57
2023/06/04 11:16:56;;;;;;;7.93;2.80;;;18.50;1.00;;;;;;5042996;28;20465;-57
2023/06/04 11:19:22;;;;;;;4.63;2.28;;;18.40;1.00;;;;;;5049105;28;20367;-58
2023/06/04 11:21:49;;;;;;;7.25;2.65;;;18.50;1.00;;;;;;5049441;28;20399;-57
2023/06/04 11:24:15;;;;;;;5.57;2.42;;;18.50;1.00;;;;;;5042566;28;20040;-57
2023/06/04 11:26:41;;;;;;;5.75;2.53;;;18.50;1.00;;;;;;5047907;28;20094;-57
2023/06/04 11:29:11;;;;;;;4.95;2.40;;;18.50;1.00;;;;;;5048564;28;20446;-57
2023/06/04 11:31:47;;;;;;;5.25;2.47;;;18.40;1.00;;;;;;5038623;28;20039;-61
2023/06/04 11:34:23;;;;;;;4.57;2.25;;;18.40;1.00;;;;;;5047701;28;20037;-58
2023/06/04 11:36:49;;;;;;;8.50;2.72;;;18.20;1.00;;;;;;5043507;28;20037;-58
2023/06/04 11:39:15;;;;;;;4.13;2.55;;;18.30;1.00;;;;;;5046240;28;20047;-58
2023/06/04 11:41:42;;;;;;;4.68;2.58;;;18.10;1.00;;;;;;5043109;28;20036;-61
2023/06/04 11:44:08;;;;;;;6.65;2.50;;;18.20;1.00;;;;;;5033285;28;20045;-58
2023/06/04 11:46:35;;;;;;;6.75;2.50;;;18.20;1.00;;;;;;5042894;28;20037;-57
2023/06/04 11:49:02;;;;;;;5.05;2.63;;;18.20;1.00;;;;;;5018195;28;20143;-57
2023/06/04 11:51:28;;;;;;;11.95;3.63;;;18.20;1.00;;;;;;5055350;28;20502;-57
2023/06/04 11:53:55;;;;;;;6.55;2.70;;;18.20;1.00;;;;;;5048692;28;20657;-57
2023/06/04 11:56:21;;;;;;;6.63;2.70;;;18.30;1.00;;;;;;5049344;28;20044;-57
2023/06/04 11:58:47;;;;;;;7.55;2.78;;;18.00;1.00;;;;;;5048039;28;20162;-57
2023/06/04 12:01:13;;;;;;;5.40;2.67;;;18.00;1.00;;;;;;5048831;28;20541;-57
2023/06/04 12:03:41;;;;;;;7.20;3.20;;;18.10;1.00;;;;;;5050539;28;20111;-57
2023/06/04 12:06:15;;;;;;;6.70;2.72;;;18.10;1.00;;;;;;5045588;28;20068;-57
2023/06/04 12:08:46;;;;;;;5.53;2.88;;;17.90;1.00;;;;;;5046443;28;20099;-57
2023/06/04 12:11:26;;;;;;;6.38;2.67;;;17.90;1.00;;;;;;5049174;28;20045;-57
2023/06/04 12:13:54;;;;;;;5.80;2.85;;;17.90;1.00;;;;;;5046120;28;20037;-57
2023/06/04 12:16:20;;;;;;;5.82;2.65;;;17.90;1.00;;;;;;5042192;28;20360;-57
2023/06/04 12:18:45;;;;;;;5.95;2.40;;;18.00;1.00;;;;;;5035900;28;20037;-57
2023/06/04 12:21:27;;;;;;;4.25;2.55;;;17.90;1.00;;;;;;5037385;28;20502;-57
2023/06/04 12:24:13;;;;;;;7.97;2.58;;;17.80;1.00;;;;;;5043459;28;20071;-57
2023/06/04 12:26:41;;;;;;;7.00;3.03;;;17.70;1.00;;;;;;5048634;28;20045;-57
2023/06/04 12:29:14;;;;;;;6.70;2.85;;;17.70;1.00;;;;;;5047769;28;20045;-56
2023/06/04 12:31:47;;;;;;;7.65;3.08;;;17.70;1.00;;;;;;5036990;28;20029;-56
2023/06/04 12:34:14;;;;;;;5.65;2.78;;;17.60;1.00;;;;;;5041915;28;20025;-62
2023/06/04 12:36:40;;;;;;;6.07;3.10;;;17.60;1.00;;;;;;5044084;28;20047;-57
2023/06/04 12:39:07;;;;;;;5.88;2.70;;;17.70;1.00;;;;;;5049145;28;20483;-57